Terminal Aerodrome Forecast
Issued by NWS Wilmington, NC

Home | Current Version | Previous Version | Text Only | Print | Product List | Glossary On
Versions: 1 2 3 4 5 6 7 8 9 10 11 12 13 14 15
237
FTUS42 KILM 281120
TAFFLO
TAF
KFLO 281120Z 2812/2912 23007KT P6SM FEW060 BKN200
     FM281900 24010KT P6SM SCT040 PROB30 2821/2902 4SM TSRA BKN040CB
     FM290300 25006KT P6SM SCT070=

USA.gov is the U.S. government's official web portal to all federal, state and local government web resources and services.